Time;durP1;ratioP1;P1;durP2;ratioP2;P2;SDS_P1;SDS_P2;PMS_P1;PMS_P2;Temp;Humidity;BMP_temperature;BMP_pressure;BME280_temperature;BME280_humidity;BME280_pressure;Samples;Min_cycle;Max_cycle;Signal;HPM_P1;HPM_P2
2020/12/13 00:00:49;;;;;;;35.90;20.07;;;8.60;99.90;;;;;;5035709;28;20662;-75
2020/12/13 00:03:15;;;;;;;28.90;18.10;;;8.60;99.90;;;;;;5036556;28;20186;-75
2020/12/13 00:05:41;;;;;;;31.73;18.57;;;8.60;99.90;;;;;;5035853;28;20184;-74
2020/12/13 00:08:07;;;;;;;30.63;18.88;;;8.70;99.90;;;;;;5034361;28;20614;-75
2020/12/13 00:10:33;;;;;;;36.30;18.37;;;8.70;99.90;;;;;;5035635;28;20267;-75
2020/12/13 00:12:58;;;;;;;33.87;18.63;;;8.70;99.90;;;;;;5036282;28;20181;-75
2020/12/13 00:15:24;;;;;;;38.53;18.43;;;8.50;99.90;;;;;;5035924;28;20190;-75
2020/12/13 00:17:51;;;;;;;32.03;17.57;;;8.50;99.90;;;;;;5035764;28;20209;-75
2020/12/13 00:20:18;;;;;;;29.92;16.70;;;8.50;99.90;;;;;;5034710;28;20658;-75
2020/12/13 00:22:45;;;;;;;26.75;17.23;;;8.40;99.90;;;;;;5034074;28;20186;-75
2020/12/13 00:25:10;;;;;;;28.75;16.88;;;8.40;99.90;;;;;;5035384;28;20178;-75
2020/12/13 00:27:36;;;;;;;25.20;16.80;;;8.40;99.90;;;;;;5035250;28;20227;-76
2020/12/13 00:30:03;;;;;;;28.23;17.13;;;8.50;99.90;;;;;;5035019;28;20460;-76
2020/12/13 00:32:30;;;;;;;23.30;16.25;;;8.50;99.90;;;;;;5034801;28;20226;-76
2020/12/13 00:34:59;;;;;;;29.13;16.80;;;8.60;99.90;;;;;;5035344;28;20548;-75
2020/12/13 00:37:26;;;;;;;35.75;22.50;;;8.60;99.90;;;;;;5034972;28;20174;-76
2020/12/13 00:39:51;;;;;;;31.45;19.13;;;8.90;99.90;;;;;;5034834;28;20170;-75
2020/12/13 00:42:17;;;;;;;35.07;18.87;;;8.80;99.90;;;;;;5034593;28;20682;-75
2020/12/13 00:44:43;;;;;;;36.58;19.52;;;8.70;99.90;;;;;;5034729;28;20526;-75
2020/12/13 00:47:09;;;;;;;30.27;18.70;;;8.80;99.90;;;;;;5034964;28;20204;-75
2020/12/13 00:49:35;;;;;;;29.60;17.83;;;8.60;99.90;;;;;;5034606;28;20970;-75
2020/12/13 00:52:05;;;;;;;30.93;18.23;;;8.70;99.90;;;;;;5034072;28;20705;-76
2020/12/13 00:54:30;;;;;;;30.27;18.75;;;8.60;99.90;;;;;;5034445;28;20406;-76
2020/12/13 00:56:56;;;;;;;27.53;18.03;;;8.70;99.90;;;;;;5034516;28;20178;-75
2020/12/13 00:59:22;;;;;;;28.30;17.07;;;8.70;99.90;;;;;;5034591;28;20178;-75
2020/12/13 01:01:47;;;;;;;26.60;18.40;;;8.70;99.90;;;;;;5034684;28;20560;-75
2020/12/13 01:04:13;;;;;;;39.33;19.10;;;8.70;99.90;;;;;;5034342;28;20416;-75
2020/12/13 01:06:39;;;;;;;30.20;19.30;;;8.60;99.90;;;;;;5034645;28;20898;-76
2020/12/13 01:09:05;;;;;;;28.93;18.90;;;8.50;99.90;;;;;;5034624;28;20187;-75
2020/12/13 01:11:32;;;;;;;32.25;17.48;;;8.60;99.90;;;;;;5034289;28;20237;-75
2020/12/13 01:13:59;;;;;;;27.52;18.92;;;8.40;99.90;;;;;;5034194;28;20170;-75
2020/12/13 01:16:25;;;;;;;30.27;18.77;;;8.40;99.90;;;;;;5034245;28;20193;-75
2020/12/13 01:18:52;;;;;;;30.30;18.83;;;8.40;99.90;;;;;;5034224;28;20170;-75
2020/12/13 01:21:24;;;;;;;33.10;17.83;;;8.30;99.90;;;;;;5034155;28;20197;-75
2020/12/13 01:23:50;;;;;;;30.27;19.20;;;8.40;99.90;;;;;;5033954;28;20182;-75
2020/12/13 01:26:17;;;;;;;29.60;18.20;;;8.50;99.90;;;;;;5034303;28;20645;-75
2020/12/13 01:28:44;;;;;;;33.13;18.10;;;8.50;99.90;;;;;;5034034;28;20420;-76
2020/12/13 01:31:13;;;;;;;32.45;18.73;;;8.50;99.90;;;;;;5033722;28;20202;-75
2020/12/13 01:33:39;;;;;;;28.50;17.05;;;8.50;99.90;;;;;;5033773;28;20178;-75
2020/12/13 01:36:04;;;;;;;27.90;17.57;;;8.50;99.90;;;;;;5034018;28;20661;-75
2020/12/13 01:38:30;;;;;;;28.23;16.70;;;8.60;99.90;;;;;;5033752;28;20262;-75
2020/12/13 01:40:57;;;;;;;32.83;19.40;;;8.50;99.90;;;;;;5033587;28;20235;-76
2020/12/13 01:43:23;;;;;;;27.55;18.33;;;8.50;99.90;;;;;;5033556;28;20265;-75
2020/12/13 01:45:49;;;;;;;25.83;16.02;;;8.50;99.90;;;;;;5033618;28;20189;-75
2020/12/13 01:48:15;;;;;;;25.10;15.70;;;8.60;99.90;;;;;;5033588;28;20174;-76
2020/12/13 01:50:51;;;;;;;26.45;16.67;;;8.60;99.90;;;;;;5033243;28;20297;-75
2020/12/13 01:53:24;;;;;;;31.30;17.88;;;8.60;99.90;;;;;;5033520;28;20173;-75
2020/12/13 01:55:52;;;;;;;29.73;18.83;;;8.50;99.90;;;;;;5033579;28;20246;-75
2020/12/13 01:58:29;;;;;;;27.08;16.10;;;8.60;99.90;;;;;;5033559;28;20174;-75
2020/12/13 02:00:56;;;;;;;26.45;16.23;;;8.50;99.90;;;;;;5033478;28;20211;-76
2020/12/13 02:03:23;;;;;;;26.50;16.90;;;8.50;99.90;;;;;;5032727;28;20184;-76
2020/12/13 02:06:01;;;;;;;22.33;15.00;;;8.50;99.90;;;;;;5033232;28;20686;-75
2020/12/13 02:08:37;;;;;;;27.10;18.20;;;8.60;99.90;;;;;;5033832;28;20177;-76
2020/12/13 02:11:03;;;;;;;25.15;16.60;;;8.50;99.90;;;;;;5032006;28;20715;-76
2020/12/13 02:13:28;;;;;;;25.90;16.00;;;8.50;99.90;;;;;;5032978;28;20176;-76
2020/12/13 02:15:54;;;;;;;24.87;15.50;;;8.40;99.90;;;;;;5033253;28;20209;-75
2020/12/13 02:18:20;;;;;;;24.03;16.20;;;8.40;99.90;;;;;;5033463;28;20536;-75
2020/12/13 02:20:47;;;;;;;27.73;18.27;;;8.40;99.90;;;;;;5033285;28;20489;-75
2020/12/13 02:23:13;;;;;;;27.48;18.20;;;8.40;99.90;;;;;;5032862;28;20544;-75
2020/12/13 02:25:39;;;;;;;32.85;18.83;;;8.20;99.90;;;;;;5033444;28;20178;-75
2020/12/13 02:28:05;;;;;;;27.07;17.07;;;8.30;99.90;;;;;;5033392;28;20532;-75
2020/12/13 02:30:30;;;;;;;28.80;17.83;;;8.30;99.90;;;;;;5033008;28;20859;-75
2020/12/13 02:32:56;;;;;;;27.33;17.53;;;8.30;99.90;;;;;;5032801;28;20420;-75
2020/12/13 02:35:22;;;;;;;28.17;18.20;;;8.30;99.90;;;;;;5033057;28;20178;-76
2020/12/13 02:37:48;;;;;;;24.23;16.50;;;8.30;99.90;;;;;;5033064;28;20415;-76
2020/12/13 02:40:14;;;;;;;26.77;17.83;;;8.40;99.90;;;;;;5032915;28;20413;-75
2020/12/13 02:42:40;;;;;;;25.97;16.43;;;8.40;99.90;;;;;;5033625;28;20181;-75
2020/12/13 02:45:05;;;;;;;24.90;17.47;;;8.40;99.90;;;;;;5037009;28;20404;-75
2020/12/13 02:47:31;;;;;;;26.20;17.20;;;8.50;99.90;;;;;;5037035;28;20182;-75
2020/12/13 02:49:57;;;;;;;28.10;16.47;;;8.30;99.90;;;;;;5037042;28;20208;-75
2020/12/13 02:52:22;;;;;;;24.27;16.13;;;8.30;99.90;;;;;;5035129;28;20215;-75
2020/12/13 02:54:48;;;;;;;24.87;14.63;;;8.20;99.90;;;;;;5036896;28;20264;-75
2020/12/13 02:57:14;;;;;;;28.00;13.60;;;8.40;99.90;;;;;;5036882;28;20245;-75
2020/12/13 02:59:39;;;;;;;23.93;15.90;;;8.40;99.90;;;;;;5036595;28;20175;-75
2020/12/13 03:02:05;;;;;;;25.60;16.80;;;8.50;99.90;;;;;;5036314;28;20190;-75
2020/12/13 03:04:30;;;;;;;28.60;16.77;;;8.40;99.90;;;;;;5036626;28;20182;-75
2020/12/13 03:06:56;;;;;;;22.90;14.90;;;8.50;99.90;;;;;;5036482;28;20170;-75
2020/12/13 03:09:22;;;;;;;25.57;17.13;;;8.30;99.90;;;;;;5036578;28;20240;-75
2020/12/13 03:11:47;;;;;;;23.40;16.50;;;8.40;99.90;;;;;;5036252;28;20214;-75
2020/12/13 03:14:13;;;;;;;28.60;17.47;;;8.40;99.90;;;;;;5036292;28;20281;-75
2020/12/13 03:16:38;;;;;;;26.80;15.43;;;8.40;99.90;;;;;;5036519;28;20169;-75
2020/12/13 03:19:04;;;;;;;28.70;17.03;;;8.40;99.90;;;;;;5036368;28;20638;-74
2020/12/13 03:21:30;;;;;;;24.40;16.50;;;8.40;99.90;;;;;;5036237;28;20201;-75
2020/12/13 03:23:55;;;;;;;30.43;16.57;;;8.30;99.90;;;;;;5035940;28;20270;-75
2020/12/13 03:26:21;;;;;;;27.33;17.73;;;8.30;99.90;;;;;;5036215;28;20785;-75
2020/12/13 03:28:46;;;;;;;21.80;15.13;;;8.30;99.90;;;;;;5036092;28;20173;-75
2020/12/13 03:31:12;;;;;;;24.20;15.97;;;8.30;99.90;;;;;;5036295;28;20538;-75
2020/12/13 03:33:37;;;;;;;25.73;16.93;;;8.40;99.90;;;;;;5036068;28;20182;-76
2020/12/13 03:36:03;;;;;;;21.03;14.40;;;8.40;99.90;;;;;;5036321;28;20170;-75
2020/12/13 03:38:29;;;;;;;21.77;15.60;;;8.30;99.90;;;;;;5036213;28;20184;-74
2020/12/13 03:40:54;;;;;;;24.70;16.23;;;8.20;99.90;;;;;;5036106;28;20211;-75
2020/12/13 03:43:20;;;;;;;28.13;16.73;;;8.30;99.90;;;;;;5035842;28;20182;-74
2020/12/13 03:45:45;;;;;;;28.03;14.43;;;8.20;99.90;;;;;;5035851;28;20181;-75
2020/12/13 03:48:11;;;;;;;24.73;16.23;;;8.20;99.90;;;;;;5036009;28;20198;-75
2020/12/13 03:50:40;;;;;;;24.17;15.00;;;8.20;99.90;;;;;;5035651;28;20232;-74
2020/12/13 03:53:13;;;;;;;25.35;17.00;;;8.20;99.90;;;;;;5035631;28;20496;-75
2020/12/13 03:55:41;;;;;;;22.23;14.50;;;8.30;99.90;;;;;;5035066;28;20198;-75
2020/12/13 03:58:07;;;;;;;22.88;14.63;;;8.20;99.90;;;;;;5035476;28;20177;-75
2020/12/13 04:00:34;;;;;;;22.23;15.90;;;8.20;99.90;;;;;;5035486;28;20247;-74
2020/12/13 04:03:02;;;;;;;19.95;12.85;;;8.30;99.90;;;;;;5035271;28;20192;-75
2020/12/13 04:05:27;;;;;;;19.88;13.02;;;8.30;99.90;;;;;;5035574;28;20182;-74
2020/12/13 04:07:53;;;;;;;27.10;13.10;;;8.20;99.90;;;;;;5035459;28;20646;-75
2020/12/13 04:10:20;;;;;;;18.33;10.83;;;8.30;99.90;;;;;;5035213;28;20802;-75
2020/12/13 04:12:47;;;;;;;21.15;13.30;;;8.30;99.90;;;;;;5035221;28;20409;-75
2020/12/13 04:15:13;;;;;;;17.02;11.73;;;8.30;99.90;;;;;;5035304;28;20164;-75
2020/12/13 04:17:39;;;;;;;15.70;10.77;;;8.30;99.90;;;;;;5035331;28;20261;-75
2020/12/13 04:20:06;;;;;;;16.75;11.18;;;8.30;99.90;;;;;;5035203;28;20210;-75
2020/12/13 04:22:32;;;;;;;19.35;10.55;;;8.30;99.90;;;;;;5034883;28;20178;-75
2020/12/13 04:24:58;;;;;;;15.10;10.35;;;8.30;99.90;;;;;;5035405;28;20182;-75
2020/12/13 04:27:24;;;;;;;14.13;9.93;;;8.50;99.90;;;;;;5035248;28;20189;-75
2020/12/13 04:29:50;;;;;;;14.27;10.97;;;8.20;99.90;;;;;;5035327;28;20176;-75
2020/12/13 04:32:15;;;;;;;13.87;8.90;;;8.20;99.90;;;;;;5034693;28;20434;-75
2020/12/13 04:34:41;;;;;;;11.87;10.03;;;8.30;99.90;;;;;;5034993;28;20412;-75
2020/12/13 04:37:07;;;;;;;11.95;9.77;;;8.20;99.90;;;;;;5035092;28;20176;-75
2020/12/13 04:39:34;;;;;;;10.63;8.87;;;8.20;99.90;;;;;;5035077;28;20606;-75
2020/12/13 04:42:03;;;;;;;14.48;10.55;;;8.10;99.90;;;;;;5034496;28;20198;-75
2020/12/13 04:44:29;;;;;;;12.48;9.10;;;8.20;99.90;;;;;;5034800;28;20665;-75
2020/12/13 04:46:55;;;;;;;10.48;9.10;;;8.30;99.90;;;;;;5035167;28;20178;-76
2020/12/13 04:49:23;;;;;;;13.40;9.52;;;8.20;99.90;;;;;;5034805;28;20637;-75
2020/12/13 04:51:50;;;;;;;12.55;9.85;;;8.20;99.90;;;;;;5034464;28;20272;-75
2020/12/13 04:54:21;;;;;;;12.77;9.30;;;8.20;99.90;;;;;;5034451;28;20170;-75
2020/12/13 04:56:49;;;;;;;14.80;10.68;;;8.20;99.90;;;;;;5034810;28;20256;-75
2020/12/13 04:59:16;;;;;;;14.40;10.70;;;8.20;99.90;;;;;;5034483;28;20651;-75
2020/12/13 05:01:44;;;;;;;16.67;11.35;;;8.30;99.90;;;;;;5034344;28;20601;-74
2020/12/13 05:04:09;;;;;;;14.13;11.50;;;8.30;99.90;;;;;;5034230;28;20189;-75
2020/12/13 05:06:36;;;;;;;14.20;12.10;;;8.30;99.90;;;;;;5033170;28;20255;-76
2020/12/13 05:09:05;;;;;;;12.13;10.73;;;8.20;99.90;;;;;;5034537;28;20178;-75
2020/12/13 05:11:30;;;;;;;15.40;12.35;;;8.30;99.90;;;;;;5034598;28;20297;-75
2020/12/13 05:13:56;;;;;;;17.17;12.07;;;8.10;99.90;;;;;;5034225;28;20259;-75
2020/12/13 05:16:22;;;;;;;16.60;12.47;;;8.20;99.90;;;;;;5034335;28;20401;-75
2020/12/13 05:18:47;;;;;;;15.90;12.43;;;8.10;99.90;;;;;;5034040;28;20649;-76
2020/12/13 05:21:22;;;;;;;16.07;12.33;;;8.20;99.90;;;;;;5034163;28;20201;-75
2020/12/13 05:23:51;;;;;;;14.60;12.35;;;8.00;99.90;;;;;;5033942;28;20184;-75
2020/12/13 05:26:19;;;;;;;18.85;12.77;;;8.00;99.90;;;;;;5034185;28;20178;-75
2020/12/13 05:28:47;;;;;;;19.40;11.57;;;7.90;99.90;;;;;;5033851;28;20646;-75
2020/12/13 05:31:15;;;;;;;17.90;12.52;;;7.80;99.90;;;;;;5033853;28;20210;-74
2020/12/13 05:33:45;;;;;;;19.15;13.15;;;7.80;99.90;;;;;;5032940;28;20185;-74
2020/12/13 05:36:11;;;;;;;14.82;12.65;;;7.80;99.90;;;;;;5034156;28;20185;-76
2020/12/13 05:38:39;;;;;;;14.80;12.20;;;7.80;99.90;;;;;;5033945;28;20170;-75
2020/12/13 05:41:06;;;;;;;21.85;12.82;;;7.90;99.90;;;;;;5033616;28;20661;-74
2020/12/13 05:43:37;;;;;;;17.15;13.60;;;7.80;99.90;;;;;;5033695;28;20565;-75
2020/12/13 05:53:24;;;;;;;33.07;10.17;;;7.70;99.90;;;;;;5033449;28;20174;-74
2020/12/13 05:55:53;;;;;;;15.30;12.13;;;7.80;99.90;;;;;;5033627;28;20173;-75
2020/12/13 05:58:22;;;;;;;16.55;12.63;;;7.80;99.90;;;;;;5033570;28;20410;-74
2020/12/13 06:00:50;;;;;;;17.30;11.65;;;7.80;99.90;;;;;;5033237;28;20204;-75
2020/12/13 06:03:29;;;;;;;15.68;13.18;;;7.80;99.90;;;;;;5033050;28;20265;-75
2020/12/13 06:06:01;;;;;;;16.50;12.10;;;7.80;99.90;;;;;;5033430;28;20162;-75
2020/12/13 06:08:45;;;;;;;22.73;12.70;;;7.70;99.90;;;;;;5033463;28;20176;-75
2020/12/13 06:11:12;;;;;;;17.48;12.55;;;7.70;99.90;;;;;;5033230;28;20659;-75
2020/12/13 06:13:45;;;;;;;16.50;12.60;;;7.50;99.90;;;;;;5033114;28;20258;-75
2020/12/13 06:16:12;;;;;;;21.10;13.30;;;7.50;99.90;;;;;;5033542;28;20678;-75
2020/12/13 06:18:38;;;;;;;23.80;13.40;;;7.60;99.90;;;;;;5033069;28;20186;-74
2020/12/13 06:21:08;;;;;;;21.23;13.32;;;7.40;99.90;;;;;;5033101;28;20554;-75
2020/12/13 06:23:35;;;;;;;18.30;13.43;;;7.50;99.90;;;;;;5032868;28;20173;-75
2020/12/13 06:26:01;;;;;;;21.98;15.40;;;7.40;99.90;;;;;;5033410;28;20288;-75
2020/12/13 06:28:27;;;;;;;20.35;14.10;;;7.50;99.90;;;;;;5033322;28;20184;-75
2020/12/13 06:30:53;;;;;;;26.07;15.67;;;7.50;99.90;;;;;;5033022;28;20581;-74
2020/12/13 06:33:22;;;;;;;22.53;13.47;;;7.50;99.90;;;;;;5032748;28;20705;-75
2020/12/13 06:35:50;;;;;;;29.15;16.20;;;7.40;99.90;;;;;;5033386;28;20827;-74
2020/12/13 06:38:17;;;;;;;23.50;12.32;;;7.30;99.90;;;;;;5033251;28;20232;-75
2020/12/13 06:40:43;;;;;;;22.25;14.77;;;7.30;99.90;;;;;;5033205;28;20209;-74
2020/12/13 06:43:09;;;;;;;23.90;14.27;;;7.40;99.90;;;;;;5032695;28;20705;-75
2020/12/13 06:45:35;;;;;;;34.25;15.82;;;7.30;99.90;;;;;;5033054;28;20665;-74
2020/12/13 06:48:00;;;;;;;23.10;15.50;;;7.30;99.90;;;;;;5033040;28;20212;-74
2020/12/13 06:50:26;;;;;;;32.13;16.63;;;7.10;99.90;;;;;;5032830;28;20228;-74
2020/12/13 06:52:54;;;;;;;24.88;15.88;;;7.20;99.90;;;;;;5032613;28;20193;-74
2020/12/13 06:55:31;;;;;;;21.90;15.18;;;7.30;99.90;;;;;;5032737;28;20171;-75
2020/12/13 06:57:58;;;;;;;30.20;15.90;;;7.40;99.90;;;;;;5032978;28;20186;-75
2020/12/13 07:00:23;;;;;;;26.10;16.90;;;7.30;99.90;;;;;;5032831;28;20226;-75
2020/12/13 07:02:58;;;;;;;25.60;14.73;;;7.10;99.90;;;;;;5032509;28;20178;-75
2020/12/13 07:05:53;;;;;;;30.85;16.08;;;7.20;99.90;;;;;;5032673;28;20551;-75
2020/12/13 07:08:21;;;;;;;26.38;14.73;;;7.20;99.90;;;;;;5033026;28;20186;-75
2020/12/13 07:10:50;;;;;;;25.13;17.02;;;7.30;99.90;;;;;;5032663;28;20223;-75
2020/12/13 07:13:20;;;;;;;31.75;16.10;;;7.30;99.90;;;;;;5032526;28;20177;-75
2020/12/13 07:16:06;;;;;;;27.15;15.95;;;7.30;99.90;;;;;;5032650;28;20256;-75
2020/12/13 07:18:34;;;;;;;23.80;16.85;;;7.30;99.90;;;;;;5032968;28;20182;-75
2020/12/13 07:21:00;;;;;;;27.77;15.25;;;7.20;99.90;;;;;;5032671;28;20193;-75
2020/12/13 07:23:26;;;;;;;30.53;16.27;;;7.30;99.90;;;;;;5032609;28;20232;-75
2020/12/13 07:25:52;;;;;;;29.27;17.05;;;7.40;99.90;;;;;;5032806;28;20172;-75
2020/12/13 07:28:18;;;;;;;22.00;15.13;;;7.50;99.90;;;;;;5032691;28;20232;-75
2020/12/13 07:30:44;;;;;;;20.40;14.70;;;7.60;99.90;;;;;;5034811;28;20209;-75
2020/12/13 07:33:10;;;;;;;19.65;14.23;;;7.70;99.90;;;;;;5036032;28;20170;-75
2020/12/13 07:35:35;;;;;;;25.93;15.10;;;7.60;99.90;;;;;;5036150;28;20229;-77
2020/12/13 07:38:02;;;;;;;19.97;15.10;;;7.60;99.90;;;;;;5036187;28;20668;-75
2020/12/13 07:40:29;;;;;;;22.70;14.20;;;7.60;99.90;;;;;;5036123;28;20202;-75
2020/12/13 07:42:59;;;;;;;24.75;14.70;;;7.60;99.90;;;;;;5035976;28;20174;-75
2020/12/13 07:45:26;;;;;;;29.65;14.60;;;7.60;99.90;;;;;;5036308;28;20178;-76
2020/12/13 07:48:00;;;;;;;29.70;14.50;;;7.50;99.90;;;;;;5036014;28;20658;-76
2020/12/13 07:50:28;;;;;;;21.38;13.45;;;7.40;99.90;;;;;;5035870;28;20221;-76
2020/12/13 07:52:53;;;;;;;28.15;14.38;;;7.40;99.90;;;;;;5035413;28;20177;-75
2020/12/13 07:55:19;;;;;;;23.33;14.20;;;7.30;99.90;;;;;;5035869;28;20181;-75
2020/12/13 07:57:48;;;;;;;28.83;13.90;;;7.30;99.90;;;;;;5035832;28;20227;-76
2020/12/13 08:00:14;;;;;;;23.15;14.15;;;7.20;99.90;;;;;;5035652;28;20667;-75
2020/12/13 08:02:40;;;;;;;21.57;13.33;;;7.20;99.90;;;;;;5035318;28;20187;-76
2020/12/13 08:05:06;;;;;;;20.33;13.50;;;7.00;99.90;;;;;;5035577;28;20447;-75
2020/12/13 08:07:31;;;;;;;20.87;12.20;;;7.10;99.90;;;;;;5035455;28;20223;-75
2020/12/13 08:10:00;;;;;;;27.50;14.43;;;7.00;99.90;;;;;;5035211;28;20181;-75
2020/12/13 08:12:36;;;;;;;22.30;12.13;;;6.90;99.90;;;;;;5035203;28;20175;-75
2020/12/13 08:15:02;;;;;;;31.27;13.38;;;7.00;99.90;;;;;;5035443;28;20182;-75
2020/12/13 08:17:28;;;;;;;26.43;14.47;;;7.00;99.90;;;;;;5035383;28;20182;-75
2020/12/13 08:19:59;;;;;;;27.73;16.17;;;6.90;99.90;;;;;;5035196;28;20418;-76
2020/12/13 08:22:26;;;;;;;20.83;13.13;;;6.90;99.90;;;;;;5035060;28;20219;-75
2020/12/13 08:24:57;;;;;;;28.33;15.40;;;6.90;99.90;;;;;;5035193;28;20189;-75
2020/12/13 08:27:24;;;;;;;21.67;14.60;;;6.80;99.90;;;;;;5035232;28;20213;-76
2020/12/13 08:29:51;;;;;;;26.83;14.15;;;6.80;99.90;;;;;;5035183;28;20508;-76
2020/12/13 08:32:20;;;;;;;28.48;14.50;;;6.80;99.90;;;;;;5035026;28;20198;-75
2020/12/13 08:34:45;;;;;;;22.10;14.55;;;6.80;99.90;;;;;;5035304;28;20262;-75
2020/12/13 08:37:11;;;;;;;21.70;14.67;;;6.90;99.90;;;;;;5035243;28;20251;-75
2020/12/13 08:39:37;;;;;;;23.90;14.60;;;7.00;99.90;;;;;;5035049;28;20646;-75
2020/12/13 08:42:07;;;;;;;24.48;13.68;;;7.00;99.90;;;;;;5034228;28;20196;-76
2020/12/13 08:44:38;;;;;;;21.10;14.35;;;7.10;99.90;;;;;;5035085;28;20221;-75
2020/12/13 08:47:05;;;;;;;24.42;14.18;;;7.20;99.90;;;;;;5034974;28;20553;-76
2020/12/13 08:49:35;;;;;;;19.85;13.30;;;7.30;99.90;;;;;;5034724;28;20257;-75
2020/12/13 08:52:13;;;;;;;18.88;11.98;;;7.40;99.90;;;;;;5032752;28;20753;-76
2020/12/13 08:55:05;;;;;;;23.60;13.52;;;7.40;99.90;;;;;;5034712;28;20567;-76
2020/12/13 08:57:32;;;;;;;20.20;11.20;;;7.50;99.90;;;;;;5033479;28;20186;-75
2020/12/13 08:59:58;;;;;;;15.65;11.27;;;7.60;99.90;;;;;;5034463;28;20165;-75
2020/12/13 09:02:23;;;;;;;17.10;10.00;;;7.60;99.90;;;;;;5034077;28;20176;-75
2020/12/13 09:04:59;;;;;;;21.57;11.67;;;7.70;99.90;;;;;;5034362;28;20178;-76
2020/12/13 09:07:31;;;;;;;13.75;9.85;;;7.70;99.90;;;;;;5034502;28;20170;-75
2020/12/13 09:10:18;;;;;;;13.85;9.43;;;7.90;99.90;;;;;;5034325;28;20232;-75
2020/12/13 09:12:43;;;;;;;13.40;10.27;;;7.90;99.90;;;;;;5033654;28;20236;-75
2020/12/13 09:15:12;;;;;;;15.53;10.60;;;7.80;99.90;;;;;;5034249;28;20166;-75
2020/12/13 09:17:41;;;;;;;11.65;8.75;;;8.00;99.90;;;;;;5034306;28;20175;-76
2020/12/13 09:20:08;;;;;;;10.57;7.55;;;8.00;99.90;;;;;;5034142;28;20260;-76
2020/12/13 09:22:34;;;;;;;9.80;8.32;;;8.00;99.90;;;;;;5033775;28;20213;-76
2020/12/13 09:25:00;;;;;;;11.25;7.32;;;8.20;99.90;;;;;;5034200;28;20185;-75
2020/12/13 09:27:26;;;;;;;8.03;6.47;;;8.20;99.90;;;;;;5034178;28;20182;-76
2020/12/13 09:29:52;;;;;;;6.38;5.57;;;8.20;99.90;;;;;;5032641;28;20978;-75
2020/12/13 09:32:21;;;;;;;6.03;4.95;;;8.20;99.90;;;;;;5033778;28;20217;-75
2020/12/13 09:34:47;;;;;;;8.82;5.28;;;8.00;99.90;;;;;;5033853;28;20173;-75
2020/12/13 09:37:15;;;;;;;8.73;5.35;;;8.20;99.90;;;;;;5034003;28;20181;-76
2020/12/13 09:39:41;;;;;;;6.75;5.45;;;8.10;99.90;;;;;;5033847;28;20180;-76
2020/12/13 09:42:08;;;;;;;6.83;5.23;;;8.20;99.90;;;;;;5033422;28;20201;-76
2020/12/13 09:44:33;;;;;;;10.35;5.20;;;8.10;99.90;;;;;;5033678;28;20443;-75
2020/12/13 09:47:00;;;;;;;5.90;4.63;;;8.20;99.90;;;;;;5033961;28;20179;-75
2020/12/13 09:49:30;;;;;;;7.68;5.13;;;8.30;99.90;;;;;;5034050;28;20405;-76
2020/12/13 09:52:01;;;;;;;6.35;4.32;;;8.20;99.90;;;;;;5032716;28;20244;-75
2020/12/13 09:54:27;;;;;;;6.20;4.40;;;8.20;99.90;;;;;;5033140;28;20165;-76
2020/12/13 09:56:53;;;;;;;6.87;5.17;;;8.40;99.90;;;;;;5033996;28;20181;-76
2020/12/13 09:59:19;;;;;;;6.80;4.73;;;8.30;99.90;;;;;;5033674;28;20549;-76
2020/12/13 10:01:45;;;;;;;6.43;4.53;;;8.30;99.90;;;;;;5033413;28;20917;-76
2020/12/13 10:04:11;;;;;;;6.00;4.53;;;8.30;99.90;;;;;;5033770;28;20269;-76
2020/12/13 10:09:15;;;;;;;9.00;4.20;;;8.10;99.90;;;;;;5033298;28;20471;-75
2020/12/13 10:11:41;;;;;;;7.00;4.88;;;8.30;99.90;;;;;;5016208;28;20713;-75
2020/12/13 10:14:10;;;;;;;13.38;4.53;;;8.30;99.90;;;;;;5012281;28;20177;-74
2020/12/13 10:16:37;;;;;;;14.32;11.65;;;8.50;99.90;;;;;;5013194;28;20205;-74
2020/12/13 10:19:03;;;;;;;6.70;5.13;;;8.50;99.90;;;;;;5012011;28;20175;-75
2020/12/13 10:21:30;;;;;;;3.93;3.40;;;8.60;99.90;;;;;;5013927;28;20194;-75
2020/12/13 10:23:56;;;;;;;5.13;3.42;;;8.50;99.90;;;;;;5013149;28;20178;-75
2020/12/13 10:26:23;;;;;;;7.07;4.28;;;8.70;99.90;;;;;;5013886;28;20260;-76
2020/12/13 10:28:49;;;;;;;4.95;4.30;;;8.60;99.90;;;;;;5013837;28;20621;-76
2020/12/13 10:31:15;;;;;;;3.73;3.43;;;8.60;99.90;;;;;;5013341;28;20296;-76
2020/12/13 10:33:41;;;;;;;5.00;3.73;;;8.60;99.90;;;;;;5013165;28;20421;-76
2020/12/13 10:36:11;;;;;;;4.35;3.80;;;8.60;99.90;;;;;;5013420;28;20190;-76
2020/12/13 10:38:38;;;;;;;3.80;3.40;;;8.70;99.90;;;;;;5014179;28;20683;-76
2020/12/13 10:41:08;;;;;;;7.10;3.92;;;8.70;99.90;;;;;;5013037;28;20206;-77
2020/12/13 10:43:35;;;;;;;3.92;3.47;;;8.60;99.90;;;;;;5012071;28;20730;-75
2020/12/13 10:46:05;;;;;;;5.18;3.65;;;8.70;99.90;;;;;;5013546;28;20189;-75
2020/12/13 10:48:31;;;;;;;9.60;3.60;;;8.80;99.90;;;;;;5013496;28;20638;-76
2020/12/13 10:50:57;;;;;;;4.80;4.00;;;8.80;99.90;;;;;;5012973;28;20636;-76
2020/12/13 10:53:23;;;;;;;8.17;3.80;;;9.10;99.90;;;;;;5013066;28;20175;-76
2020/12/13 10:55:49;;;;;;;5.93;3.47;;;9.20;99.90;;;;;;5012244;28;20614;-76
2020/12/13 10:58:14;;;;;;;5.50;3.43;;;9.10;99.90;;;;;;5021782;28;20417;-75
2020/12/13 11:00:40;;;;;;;5.37;3.60;;;9.10;99.90;;;;;;5032850;28;20194;-76
2020/12/13 11:03:06;;;;;;;3.20;2.73;;;9.30;99.90;;;;;;5032515;28;20604;-75
2020/12/13 11:05:31;;;;;;;5.97;4.07;;;9.20;99.90;;;;;;5034782;28;20181;-76
2020/12/13 11:07:57;;;;;;;3.60;3.27;;;9.30;99.90;;;;;;5036699;28;20253;-76
2020/12/13 11:10:22;;;;;;;4.17;2.97;;;9.40;99.90;;;;;;5035516;28;20567;-74
2020/12/13 11:12:48;;;;;;;5.30;3.20;;;9.60;99.90;;;;;;5022752;28;20175;-76
2020/12/13 11:15:14;;;;;;;3.17;2.53;;;9.70;99.90;;;;;;5016943;28;20175;-77
2020/12/13 11:17:39;;;;;;;5.30;3.00;;;10.00;99.90;;;;;;5016632;28;20236;-76
2020/12/13 11:20:05;;;;;;;3.50;2.30;;;10.00;99.90;;;;;;5016828;28;20167;-77
2020/12/13 11:22:31;;;;;;;5.10;2.23;;;10.70;99.90;;;;;;5016570;28;20209;-76
2020/12/13 11:24:56;;;;;;;3.17;1.90;;;10.90;99.90;;;;;;5016618;28;20177;-74
2020/12/13 11:27:22;;;;;;;5.27;2.13;;;11.30;99.90;;;;;;5016812;28;20436;-75
2020/12/13 11:29:47;;;;;;;4.40;1.87;;;11.50;99.90;;;;;;5016915;28;20543;-75
2020/12/13 11:32:13;;;;;;;5.13;1.80;;;11.90;99.90;;;;;;5016579;28;20541;-75
2020/12/13 11:34:39;;;;;;;2.60;1.80;;;12.10;99.90;;;;;;5016837;28;20167;-75
2020/12/13 11:37:07;;;;;;;5.60;2.60;;;12.10;99.90;;;;;;5016769;28;20183;-75
2020/12/13 11:39:35;;;;;;;1.90;1.63;;;11.80;99.90;;;;;;5016490;28;20213;-75
2020/12/13 11:42:01;;;;;;;2.40;1.90;;;11.60;99.90;;;;;;5016341;28;20426;-74
2020/12/13 11:44:27;;;;;;;3.10;1.77;;;11.50;99.90;;;;;;5016661;28;20414;-75
2020/12/13 11:46:54;;;;;;;3.80;2.07;;;11.30;99.90;;;;;;5016449;28;20402;-76
2020/12/13 11:49:19;;;;;;;3.20;1.57;;;11.10;99.90;;;;;;5016133;28;20406;-75
2020/12/13 11:51:45;;;;;;;2.90;1.53;;;11.40;99.90;;;;;;5015854;28;20617;-76
2020/12/13 11:54:12;;;;;;;4.50;1.57;;;11.60;99.90;;;;;;5015933;28;20171;-75
2020/12/13 11:56:37;;;;;;;3.67;1.93;;;12.00;99.90;;;;;;5016255;28;20414;-75
2020/12/13 11:59:03;;;;;;;4.33;2.00;;;12.10;99.90;;;;;;5016109;28;20414;-76
2020/12/13 12:01:29;;;;;;;2.60;1.10;;;12.60;99.90;;;;;;5015982;28;20639;-76
2020/12/13 12:03:55;;;;;;;2.13;1.00;;;12.90;99.90;;;;;;5015477;28;20778;-76
2020/12/13 12:06:22;;;;;;;2.20;1.10;;;12.80;99.90;;;;;;5015832;28;20175;-75
2020/12/13 12:08:48;;;;;;;1.47;0.80;;;13.00;99.90;;;;;;5016121;28;20418;-76
2020/12/13 12:11:18;;;;;;;3.23;0.90;;;12.20;99.90;;;;;;5015840;28;20905;-76
2020/12/13 12:13:44;;;;;;;7.10;0.90;;;12.30;99.90;;;;;;5015942;28;20630;-75
2020/12/13 12:16:10;;;;;;;3.17;1.00;;;12.60;99.90;;;;;;5015109;28;20488;-75
2020/12/13 12:18:35;;;;;;;1.53;0.90;;;12.40;99.90;;;;;;5015520;28;20410;-75
2020/12/13 12:21:06;;;;;;;4.67;1.47;;;11.90;99.90;;;;;;5015545;28;20202;-75
2020/12/13 12:23:31;;;;;;;1.55;0.93;;;11.20;99.90;;;;;;5015444;28;20170;-75
2020/12/13 12:25:57;;;;;;;3.80;1.03;;;11.10;99.90;;;;;;5015388;28;20613;-75
2020/12/13 12:28:23;;;;;;;2.40;0.93;;;11.20;99.90;;;;;;5015524;28;20174;-75
2020/12/13 12:30:48;;;;;;;2.90;1.03;;;10.40;99.90;;;;;;5015337;28;20206;-76
2020/12/13 12:33:14;;;;;;;1.27;0.80;;;10.20;99.90;;;;;;5015169;28;20179;-76
2020/12/13 12:35:42;;;;;;;2.43;1.03;;;10.10;99.90;;;;;;5016629;28;20252;-76
2020/12/13 12:38:08;;;;;;;2.00;1.30;;;10.10;99.90;;;;;;5031163;28;20178;-76
2020/12/13 12:40:34;;;;;;;2.55;1.13;;;10.30;99.90;;;;;;5035109;28;20209;-76
2020/12/13 12:42:59;;;;;;;3.00;1.73;;;10.20;99.90;;;;;;5035490;28;20177;-75
2020/12/13 12:45:25;;;;;;;2.83;0.93;;;10.20;99.90;;;;;;5034447;28;20170;-74
2020/12/13 12:47:51;;;;;;;2.53;1.37;;;10.20;99.90;;;;;;5034587;28;20178;-73
2020/12/13 12:50:18;;;;;;;3.03;1.17;;;10.30;99.90;;;;;;5034866;28;20198;-75